Time;durP1;ratioP1;P1;durP2;ratioP2;P2;SDS_P1;SDS_P2;PMS_P1;PMS_P2;Temp;Humidity;BMP_temperature;BMP_pressure;BME280_temperature;BME280_humidity;BME280_pressure;Samples;Min_cycle;Max_cycle;Signal;HPM_P1;HPM_P2
2022/11/16 00:01:14;;;;;;;;;;;19.60;62.70;;;;;;5020585;28;19917;-67
2022/11/16 00:03:40;;;;;;;;;;;19.60;61.90;;;;;;5018962;28;20624;-66
2022/11/16 00:06:08;;;;;;;;;;;19.70;61.90;;;;;;5021270;28;19909;-67
2022/11/16 00:08:37;;;;;;;;;;;19.70;62.60;;;;;;5019305;28;19913;-66
2022/11/16 00:11:14;;;;;;;;;;;19.80;61.50;;;;;;5020471;28;20043;-68
2022/11/16 00:13:42;;;;;;;;;;;19.90;61.60;;;;;;5019117;28;20243;-65
2022/11/16 00:16:19;;;;;;;;;;;20.00;60.50;;;;;;5021713;28;20432;-67
2022/11/16 00:18:45;;;;;;;;;;;20.00;61.90;;;;;;5019004;28;19913;-68
2022/11/16 00:21:12;;;;;;;;;;;20.20;60.20;;;;;;5020229;28;19921;-64
2022/11/16 00:23:39;;;;;;;;;;;20.20;60.70;;;;;;5018388;28;19917;-68
2022/11/16 00:26:06;;;;;;;;;;;20.30;60.50;;;;;;5020794;28;19909;-68
2022/11/16 00:28:33;;;;;;;;;;;20.30;59.90;;;;;;5016938;28;20012;-66
2022/11/16 00:31:04;;;;;;;;;;;20.50;59.40;;;;;;5020877;28;19913;-69
2022/11/16 00:33:31;;;;;;;;;;;20.80;59.20;;;;;;5017578;28;20004;-65
2022/11/16 00:36:00;;;;;;;;;;;21.00;58.20;;;;;;5021182;28;19915;-70
2022/11/16 00:38:27;;;;;;;;;;;21.10;57.60;;;;;;5019293;28;19956;-63
2022/11/16 00:40:53;;;;;;;;;;;21.00;57.70;;;;;;5000759;28;19921;-66
2022/11/16 00:43:20;;;;;;;;;;;21.10;57.20;;;;;;5019010;28;19917;-68
2022/11/16 00:45:46;;;;;;;;;;;21.40;57.20;;;;;;5018817;28;20384;-67
2022/11/16 00:48:13;;;;;;;;;;;21.70;56.50;;;;;;5020573;28;19963;-65
2022/11/16 00:50:40;;;;;;;;;;;21.80;57.10;;;;;;5018311;28;20135;-68
2022/11/16 00:53:07;;;;;;;;;;;21.50;55.80;;;;;;5019739;28;20320;-65
2022/11/16 00:55:34;;;;;;;;;;;21.00;56.60;;;;;;5017020;28;19944;-67
2022/11/16 00:58:00;;;;;;;;;;;20.90;57.70;;;;;;5019319;28;20388;-65
2022/11/16 01:00:27;;;;;;;;;;;21.10;57.40;;;;;;5017857;28;19909;-65
2022/11/16 01:02:53;;;;;;;;;;;21.60;56.50;;;;;;5017631;28;19909;-63
2022/11/16 01:05:21;;;;;;;;;;;21.70;56.10;;;;;;5018769;28;19952;-66
2022/11/16 01:07:47;;;;;;;;;;;21.40;54.90;;;;;;5018699;28;19993;-68
2022/11/16 01:10:16;;;;;;;;;;;21.50;56.70;;;;;;5020304;28;19991;-66
2022/11/16 01:12:44;;;;;;;;;;;21.80;56.90;;;;;;5016963;28;19910;-65
2022/11/16 01:15:11;;;;;;;;;;;22.00;57.20;;;;;;5025745;28;20008;-66
2022/11/16 01:17:38;;;;;;;;;;;22.10;56.70;;;;;;5016727;28;19913;-66
2022/11/16 01:20:06;;;;;;;;;;;22.20;57.40;;;;;;5020811;28;19941;-66
2022/11/16 01:22:36;;;;;;;;;;;22.20;57.00;;;;;;5017929;28;19921;-67
2022/11/16 01:25:03;;;;;;;;;;;22.60;55.60;;;;;;5020179;28;20016;-65
2022/11/16 01:27:30;;;;;;;;;;;22.90;55.60;;;;;;5021347;28;19936;-67
2022/11/16 01:29:56;;;;;;;;;;;23.10;54.20;;;;;;5008390;28;20392;-64
2022/11/16 01:32:23;;;;;;;;;;;23.10;53.70;;;;;;5019375;28;19948;-68
2022/11/16 01:34:50;;;;;;;;;;;22.80;54.20;;;;;;5016853;28;20338;-65
2022/11/16 01:37:17;;;;;;;;;;;22.60;53.20;;;;;;5019805;28;19959;-66
2022/11/16 01:39:44;;;;;;;;;;;22.50;52.80;;;;;;5014049;28;19925;-67
2022/11/16 01:42:17;;;;;;;;;;;22.40;51.50;;;;;;5019035;28;20414;-69
2022/11/16 01:44:44;;;;;;;;;;;22.30;51.70;;;;;;5014749;28;19921;-67
2022/11/16 01:47:12;;;;;;;;;;;22.10;54.50;;;;;;5020071;28;19990;-70
2022/11/16 01:49:41;;;;;;;;;;;22.10;57.90;;;;;;5017796;28;19909;-69
2022/11/16 01:52:10;;;;;;;;;;;22.00;53.60;;;;;;5019481;28;20007;-64
2022/11/16 01:54:37;;;;;;;;;;;21.70;52.50;;;;;;5017729;28;19917;-66
2022/11/16 01:57:06;;;;;;;;;;;22.00;52.80;;;;;;5018344;28;19913;-64
2022/11/16 01:59:33;;;;;;;;;;;22.00;52.80;;;;;;5018049;28;19909;-65
2022/11/16 02:02:00;;;;;;;;;;;22.00;55.10;;;;;;5017688;28;20235;-64
2022/11/16 02:04:26;;;;;;;;;;;22.20;63.50;;;;;;5019084;28;20278;-66
2022/11/16 02:07:08;;;;;;;;;;;22.10;65.10;;;;;;5030713;28;19913;-64
2022/11/16 02:09:57;;;;;;;;;;;21.90;66.50;;;;;;5038347;28;20428;-67
2022/11/16 02:12:35;;;;;;;;;;;22.00;66.90;;;;;;5037484;28;20354;-64
2022/11/16 02:15:14;;;;;;;;;;;22.30;65.70;;;;;;5017057;28;20012;-68
2022/11/16 02:17:59;;;;;;;;;;;22.50;64.10;;;;;;5017798;28;20023;-66
2022/11/16 02:20:29;;;;;;;;;;;22.50;65.70;;;;;;5019854;28;19913;-66
2022/11/16 02:23:08;;;;;;;;;;;22.70;65.40;;;;;;5016953;28;19913;-65
2022/11/16 02:25:41;;;;;;;;;;;22.80;64.50;;;;;;5017993;28;19964;-65
2022/11/16 02:28:16;;;;;;;;;;;22.60;64.80;;;;;;5017171;28;19954;-65
2022/11/16 02:30:44;;;;;;;;;;;22.40;65.20;;;;;;5017908;28;19979;-66
2022/11/16 02:33:12;;;;;;;;;;;22.40;66.60;;;;;;5018475;28;19909;-69
2022/11/16 02:35:46;;;;;;;;;;;22.10;66.60;;;;;;5016773;28;19909;-65
2022/11/16 02:38:18;;;;;;;;;;;21.60;68.50;;;;;;5021974;28;19920;-66
2022/11/16 02:40:46;;;;;;;;;;;21.20;69.10;;;;;;5029178;28;19921;-66
2022/11/16 02:43:17;;;;;;;;;;;20.90;71.40;;;;;;5021682;28;20198;-69
2022/11/16 02:45:46;;;;;;;;;;;20.50;72.00;;;;;;5002506;28;20433;-68
2022/11/16 02:48:20;;;;;;;;;;;20.20;73.70;;;;;;5019383;28;19948;-67
2022/11/16 02:50:51;;;;;;;;;;;19.90;75.50;;;;;;5022051;28;19909;-67
2022/11/16 02:53:20;;;;;;;;;;;19.60;76.70;;;;;;5022347;28;19935;-68
2022/11/16 02:55:47;;;;;;;;;;;19.30;77.20;;;;;;5013382;28;19924;-70
2022/11/16 02:58:17;;;;;;;;;;;19.00;77.90;;;;;;5020644;28;19909;-68
2022/11/16 03:00:47;;;;;;;;;;;18.80;79.20;;;;;;5022278;28;19917;-68
2022/11/16 03:03:20;;;;;;;;;;;18.60;80.50;;;;;;5020816;28;19917;-66
2022/11/16 03:05:51;;;;;;;;;;;18.40;84.80;;;;;;5021127;28;19947;-70
2022/11/16 03:08:21;;;;;;;;;;;18.00;91.20;;;;;;5020957;28;20356;-66
2022/11/16 03:13:38;;;;;;;;;;;16.10;88.60;;;;;;5021720;28;20274;-65
2022/11/16 03:16:08;;;;;;;;;;;15.10;90.30;;;;;;5021393;28;20310;-68
2022/11/16 03:18:35;;;;;;;;;;;14.60;92.20;;;;;;5018171;28;19917;-64
2022/11/16 03:21:15;;;;;;;;;;;14.40;93.50;;;;;;5016592;28;19909;-68
2022/11/16 03:23:42;;;;;;;;;;;14.30;95.80;;;;;;5005845;28;19921;-66
2022/11/16 03:26:09;;;;;;;;;;;14.70;99.50;;;;;;5019356;28;19947;-65
2022/11/16 03:28:42;;;;;;;;;;;15.10;99.60;;;;;;5021268;28;19920;-65
2022/11/16 03:31:18;;;;;;;;;;;15.80;99.90;;;;;;5002996;28;19913;-66
2022/11/16 03:33:50;;;;;;;;;;;16.20;97.60;;;;;;5021003;28;19913;-69
2022/11/16 03:36:21;;;;;;;;;;;17.10;99.00;;;;;;5019543;28;19913;-69
2022/11/16 03:38:49;;;;;;;;;;;18.50;93.00;;;;;;5021053;28;19908;-68
2022/11/16 03:41:18;;;;;;;;;;;19.50;86.20;;;;;;5019758;28;20277;-66
2022/11/16 03:43:45;;;;;;;;;;;20.10;82.70;;;;;;5020698;28;19963;-68
2022/11/16 03:46:12;;;;;;;;;;;20.20;79.10;;;;;;5020230;28;20370;-68
2022/11/16 03:48:39;;;;;;;;;;;20.30;84.00;;;;;;5020734;28;19941;-67
2022/11/16 03:51:07;;;;;;;;;;;21.90;79.60;;;;;;5009302;28;19932;-66
2022/11/16 03:53:34;;;;;;;;;;;22.70;72.40;;;;;;5020538;28;20070;-66
2022/11/16 03:56:01;;;;;;;;;;;22.50;73.10;;;;;;5019965;28;20004;-66
2022/11/16 03:58:27;;;;;;;;;;;21.90;70.00;;;;;;5019752;28;19920;-69
2022/11/16 04:00:54;;;;;;;;;;;20.90;72.10;;;;;;5021521;28;19909;-68
2022/11/16 04:03:21;;;;;;;;;;;20.30;73.40;;;;;;5018380;28;19932;-67
2022/11/16 04:25:11;;;;;;;;;;;18.50;70.80;;;;;;5017238;28;20554;-69
2022/11/16 04:30:22;;;;;;;;;;;20.20;69.60;;;;;;5015510;28;20381;-71
2022/11/16 04:38:19;;;;;;;;;;;23.20;62.20;;;;;;5018742;28;19956;-68
2022/11/16 04:40:46;;;;;;;;;;;23.20;60.30;;;;;;5013750;28;19922;-65
2022/11/16 04:43:17;;;;;;;;;;;22.70;61.20;;;;;;5015598;28;20185;-70
2022/11/16 04:48:28;;;;;;;;;;;21.90;65.20;;;;;;5013711;28;20393;-70
2022/11/16 04:50:55;;;;;;;;;;;21.40;63.30;;;;;;5018211;28;19913;-72
2022/11/16 04:53:25;;;;;;;;;;;20.90;67.40;;;;;;5016390;28;20363;-71
2022/11/16 04:55:52;;;;;;;;;;;20.40;76.10;;;;;;5018286;28;19913;-67
2022/11/16 04:58:19;;;;;;;;;;;19.60;81.50;;;;;;5015391;28;19913;-72
2022/11/16 05:00:45;;;;;;;;;;;19.00;83.70;;;;;;5018422;28;19935;-68
2022/11/16 05:03:12;;;;;;;;;;;18.20;87.10;;;;;;5018658;28;19913;-70
2022/11/16 05:05:38;;;;;;;;;;;17.70;90.20;;;;;;5018394;28;19925;-69
2022/11/16 05:08:05;;;;;;;;;;;17.50;91.50;;;;;;5019897;28;19909;-68
2022/11/16 05:10:32;;;;;;;;;;;17.80;90.20;;;;;;5015853;28;19913;-68
2022/11/16 05:12:58;;;;;;;;;;;18.20;87.80;;;;;;5019410;28;19932;-68
2022/11/16 05:15:25;;;;;;;;;;;19.00;87.40;;;;;;5017790;28;19914;-70
2022/11/16 05:17:53;;;;;;;;;;;19.50;84.80;;;;;;5014148;28;19913;-69
2022/11/16 05:24:32;;;;;;;;;;;19.20;83.20;;;;;;5018959;28;19961;-69
2022/11/16 05:25:51;;;;;;;;;;;19.10;83.40;;;;;;5015548;28;19952;-68
2022/11/16 05:28:18;;;;;;;;;;;18.70;83.90;;;;;;5015578;28;19935;-70
2022/11/16 05:30:45;;;;;;;;;;;18.10;85.60;;;;;;5015487;28;19933;-67
2022/11/16 05:33:14;;;;;;;;;;;17.50;86.30;;;;;;5019290;28;19963;-69
2022/11/16 05:35:40;;;;;;;;;;;17.00;86.30;;;;;;5013240;28;19945;-68
2022/11/16 05:38:07;;;;;;;;;;;16.60;87.90;;;;;;5013308;28;20290;-70
2022/11/16 05:40:39;;;;;;;;;;;16.40;88.70;;;;;;5010060;28;19932;-67
2022/11/16 05:43:06;;;;;;;;;;;16.30;89.80;;;;;;5030654;28;19913;-68
2022/11/16 05:45:33;;;;;;;;;;;16.30;90.30;;;;;;5031462;28;20149;-68
2022/11/16 05:47:59;;;;;;;;;;;16.60;90.20;;;;;;5019341;28;19913;-66
2022/11/16 05:50:26;;;;;;;;;;;17.70;89.90;;;;;;5015748;28;19920;-69
2022/11/16 05:52:53;;;;;;;;;;;19.30;82.70;;;;;;5016803;28;20336;-66
2022/11/16 05:55:19;;;;;;;;;;;19.50;81.20;;;;;;5011101;28;19913;-65
2022/11/16 05:57:46;;;;;;;;;;;19.50;81.20;;;;;;5017173;28;19955;-69
2022/11/16 06:00:13;;;;;;;;;;;19.30;82.00;;;;;;5017922;28;19913;-66
2022/11/16 06:02:40;;;;;;;;;;;19.10;81.40;;;;;;5016953;28;19953;-70
2022/11/16 06:05:06;;;;;;;;;;;18.70;81.80;;;;;;5016513;28;19928;-68
2022/11/16 06:07:33;;;;;;;;;;;18.20;82.90;;;;;;5016219;28;19913;-68
2022/11/16 06:10:00;;;;;;;;;;;17.60;83.60;;;;;;5020208;28;19939;-67
2022/11/16 06:12:26;;;;;;;;;;;17.10;85.70;;;;;;5019619;28;19913;-66
2022/11/16 06:14:53;;;;;;;;;;;16.90;87.80;;;;;;5020860;28;19984;-64
2022/11/16 06:17:19;;;;;;;;;;;16.70;86.90;;;;;;5022603;28;20004;-68
2022/11/16 06:19:46;;;;;;;;;;;16.60;86.00;;;;;;5019979;28;20067;-67
2022/11/16 06:22:13;;;;;;;;;;;16.40;88.30;;;;;;5022671;28;19936;-66
2022/11/16 06:24:39;;;;;;;;;;;16.30;88.50;;;;;;5019804;28;20675;-66
2022/11/16 06:27:06;;;;;;;;;;;16.20;88.90;;;;;;5023233;28;19916;-67
2022/11/16 06:29:33;;;;;;;;;;;16.10;90.00;;;;;;5019790;28;20012;-66
2022/11/16 06:31:59;;;;;;;;;;;16.10;90.30;;;;;;5021797;28;20439;-66
2022/11/16 06:34:26;;;;;;;;;;;16.20;90.20;;;;;;5020351;28;20016;-68
2022/11/16 06:36:53;;;;;;;;;;;16.50;90.90;;;;;;5022104;28;19909;-67
2022/11/16 06:39:19;;;;;;;;;;;16.80;90.00;;;;;;5021823;28;19928;-68
2022/11/16 06:41:46;;;;;;;;;;;17.20;87.40;;;;;;5018874;28;20023;-65
2022/11/16 06:44:12;;;;;;;;;;;17.70;84.50;;;;;;5022085;28;19960;-66
2022/11/16 06:46:39;;;;;;;;;;;17.90;82.90;;;;;;5012294;28;19921;-69
2022/11/16 06:49:06;;;;;;;;;;;18.00;83.30;;;;;;5019909;28;20362;-68
2022/11/16 06:51:32;;;;;;;;;;;18.10;82.90;;;;;;5034400;28;20011;-67
2022/11/16 06:53:59;;;;;;;;;;;18.30;82.70;;;;;;5022151;28;19983;-67
2022/11/16 06:56:26;;;;;;;;;;;18.50;82.90;;;;;;5022183;28;20430;-69
2022/11/16 06:58:54;;;;;;;;;;;18.80;81.90;;;;;;5019300;28;19909;-69
2022/11/16 07:01:21;;;;;;;;;;;18.90;80.50;;;;;;5022985;28;19909;-67
2022/11/16 07:03:47;;;;;;;;;;;18.90;81.30;;;;;;5019340;28;19913;-69
2022/11/16 07:06:14;;;;;;;;;;;18.80;81.80;;;;;;5004368;28;20504;-69
2022/11/16 07:08:41;;;;;;;;;;;18.80;81.30;;;;;;5014826;28;19949;-70
2022/11/16 07:11:08;;;;;;;;;;;18.70;80.80;;;;;;5019680;28;19909;-68
2022/11/16 07:13:36;;;;;;;;;;;18.70;80.80;;;;;;5020591;28;19963;-68
2022/11/16 07:16:03;;;;;;;;;;;18.60;81.90;;;;;;5004433;28;19913;-68
2022/11/16 07:18:33;;;;;;;;;;;18.50;81.80;;;;;;5003917;28;20282;-67
2022/11/16 07:21:05;;;;;;;;;;;18.50;81.90;;;;;;5020221;28;19913;-66
2022/11/16 07:23:31;;;;;;;;;;;18.30;81.90;;;;;;5021842;28;20015;-68
2022/11/16 07:26:01;;;;;;;;;;;18.30;82.80;;;;;;5038774;28;20235;-66
2022/11/16 07:28:28;;;;;;;;;;;18.30;83.30;;;;;;5032545;28;20350;-65
2022/11/16 07:30:59;;;;;;;;;;;18.10;83.90;;;;;;5018515;28;19913;-65
2022/11/16 07:33:26;;;;;;;;;;;18.00;83.60;;;;;;5021625;28;19913;-66
2022/11/16 07:35:53;;;;;;;;;;;17.90;84.50;;;;;;5018831;28;19913;-67
2022/11/16 07:38:19;;;;;;;;;;;17.80;84.60;;;;;;5021583;28;19910;-67
2022/11/16 07:40:46;;;;;;;;;;;17.60;84.70;;;;;;5019891;28;19925;-67
2022/11/16 07:43:12;;;;;;;;;;;17.50;85.50;;;;;;5020365;28;19914;-69
2022/11/16 07:45:39;;;;;;;;;;;17.30;85.80;;;;;;5019418;28;19917;-69
2022/11/16 07:48:06;;;;;;;;;;;17.20;86.60;;;;;;5020403;28;19996;-69
2022/11/16 07:50:34;;;;;;;;;;;17.00;86.30;;;;;;5021576;28;19913;-67
2022/11/16 07:53:00;;;;;;;;;;;16.80;87.70;;;;;;5018879;28;20384;-69
2022/11/16 07:55:30;;;;;;;;;;;16.70;87.90;;;;;;5021098;28;19913;-68
2022/11/16 07:57:58;;;;;;;;;;;16.70;88.10;;;;;;5023193;28;19954;-68
2022/11/16 08:00:24;;;;;;;;;;;16.70;88.20;;;;;;5023157;28;19909;-69
2022/11/16 08:02:51;;;;;;;;;;;16.60;87.80;;;;;;5019508;28;19909;-67
2022/11/16 08:05:18;;;;;;;;;;;16.60;87.30;;;;;;5020159;28;19936;-67
2022/11/16 08:07:44;;;;;;;;;;;16.50;88.30;;;;;;5001615;28;20000;-67
2022/11/16 08:10:11;;;;;;;;;;;16.40;88.20;;;;;;5020771;28;19910;-67
2022/11/16 08:12:37;;;;;;;;;;;16.40;88.40;;;;;;5020734;28;19909;-66
2022/11/16 08:15:04;;;;;;;;;;;16.30;88.80;;;;;;5019301;28;19913;-68
2022/11/16 08:17:31;;;;;;;;;;;16.40;90.10;;;;;;5019967;28;20013;-67
2022/11/16 08:19:57;;;;;;;;;;;16.30;90.00;;;;;;5018147;28;19909;-68
2022/11/16 08:22:24;;;;;;;;;;;16.30;88.30;;;;;;5020080;28;20035;-66
2022/11/16 08:24:51;;;;;;;;;;;16.20;87.40;;;;;;5019066;28;19923;-66
2022/11/16 08:27:17;;;;;;;;;;;16.10;86.80;;;;;;5019843;28;21220;-67
2022/11/16 08:29:44;;;;;;;;;;;16.10;87.00;;;;;;5020008;28;19916;-67
2022/11/16 08:32:11;;;;;;;;;;;16.10;87.40;;;;;;5018566;28;19936;-67
2022/11/16 08:34:37;;;;;;;;;;;16.00;87.60;;;;;;5019799;28;19920;-66
2022/11/16 08:37:04;;;;;;;;;;;15.80;88.30;;;;;;5018043;28;20309;-67
2022/11/16 08:39:31;;;;;;;;;;;15.80;88.50;;;;;;5019543;28;19955;-66
2022/11/16 08:41:57;;;;;;;;;;;15.70;88.30;;;;;;5033279;28;19921;-65
2022/11/16 08:44:24;;;;;;;;;;;15.60;89.10;;;;;;5019542;28;19917;-67
2022/11/16 08:46:50;;;;;;;;;;;15.50;89.80;;;;;;5018742;28;19913;-66
2022/11/16 08:49:17;;;;;;;;;;;15.50;89.00;;;;;;5019746;28;19959;-66
2022/11/16 08:51:44;;;;;;;;;;;15.40;89.50;;;;;;5020557;28;19936;-67
2022/11/16 08:54:10;;;;;;;;;;;15.30;89.70;;;;;;5018492;28;19967;-67
2022/11/16 08:56:37;;;;;;;;;;;15.30;89.50;;;;;;5020040;28;20593;-66
2022/11/16 08:59:03;;;;;;;;;;;15.30;88.50;;;;;;5017872;28;20406;-67
2022/11/16 09:01:31;;;;;;;;;;;15.30;88.80;;;;;;5019144;28;19920;-68
2022/11/16 09:03:58;;;;;;;;;;;15.20;89.00;;;;;;5017737;28;19940;-67
2022/11/16 09:06:25;;;;;;;;;;;15.20;89.10;;;;;;5019138;28;19955;-65
2022/11/16 09:08:52;;;;;;;;;;;15.20;90.00;;;;;;5016753;28;19920;-66
2022/11/16 09:11:20;;;;;;;;;;;15.10;90.30;;;;;;5017928;28;20278;-65
2022/11/16 09:13:48;;;;;;;;;;;15.10;90.40;;;;;;5019278;28;19913;-67
2022/11/16 09:16:15;;;;;;;;;;;15.10;90.50;;;;;;5018531;28;20004;-66
2022/11/16 09:18:45;;;;;;;;;;;15.00;90.50;;;;;;5019026;28;19932;-66
2022/11/16 09:21:34;;;;;;;;;;;15.00;90.50;;;;;;4999364;28;19913;-66
2022/11/16 09:24:01;;;;;;;;;;;15.00;90.40;;;;;;4998493;28;19999;-65
2022/11/16 09:26:28;;;;;;;;;;;15.00;90.20;;;;;;4999606;28;19913;-64
2022/11/16 09:28:59;;;;;;;;;;;15.00;89.80;;;;;;4998749;28;20000;-68
2022/11/16 09:31:26;;;;;;;;;;;14.90;90.00;;;;;;5016432;28;19913;-65
2022/11/16 09:33:53;;;;;;;;;;;14.90;90.00;;;;;;5018164;28;20259;-65
2022/11/16 09:36:20;;;;;;;;;;;14.90;90.30;;;;;;5017252;28;19924;-67
2022/11/16 09:38:47;;;;;;;;;;;14.80;89.90;;;;;;5018833;28;20354;-64
2022/11/16 09:41:16;;;;;;;;;;;14.80;90.00;;;;;;5016643;28;19921;-65
2022/11/16 09:43:43;;;;;;;;;;;14.80;90.60;;;;;;5016259;28;19921;-64
2022/11/16 09:46:12;;;;;;;;;;;14.80;90.40;;;;;;5018059;28;19917;-66
2022/11/16 09:48:39;;;;;;;;;;;14.70;90.70;;;;;;5019431;28;19909;-64
2022/11/16 09:51:07;;;;;;;;;;;14.70;91.00;;;;;;5017851;28;19915;-65
2022/11/16 09:53:33;;;;;;;;;;;14.70;91.30;;;;;;5018074;28;19909;-65
2022/11/16 09:56:03;;;;;;;;;;;14.60;90.80;;;;;;5019169;28;19917;-67
2022/11/16 09:58:30;;;;;;;;;;;14.60;90.90;;;;;;5019610;28;19936;-66
2022/11/16 10:01:04;;;;;;;;;;;14.50;91.00;;;;;;5019669;28;20035;-67
2022/11/16 10:03:33;;;;;;;;;;;14.50;91.30;;;;;;5018661;28;20369;-69
2022/11/16 10:06:04;;;;;;;;;;;14.50;90.70;;;;;;5018360;28;19924;-69
2022/11/16 10:08:41;;;;;;;;;;;14.40;91.40;;;;;;5019562;28;19917;-69
2022/11/16 10:11:11;;;;;;;;;;;14.40;91.70;;;;;;5017811;28;20322;-70
2022/11/16 10:13:38;;;;;;;;;;;14.40;91.50;;;;;;5019246;28;20095;-70
2022/11/16 10:16:22;;;;;;;;;;;14.30;91.40;;;;;;5018212;28;19909;-70
2022/11/16 10:18:49;;;;;;;;;;;14.40;92.10;;;;;;5018812;28;19909;-69
2022/11/16 10:21:38;;;;;;;;;;;14.30;92.50;;;;;;5017817;28;19909;-68
2022/11/16 10:24:07;;;;;;;;;;;14.30;93.20;;;;;;5017366;28;20049;-68
2022/11/16 10:26:49;;;;;;;;;;;14.30;93.30;;;;;;5018465;28;19924;-71
2022/11/16 10:29:19;;;;;;;;;;;14.20;93.40;;;;;;5016564;28;20269;-70
2022/11/16 10:31:45;;;;;;;;;;;14.10;93.70;;;;;;5018993;28;19948;-66
2022/11/16 10:34:38;;;;;;;;;;;14.00;94.00;;;;;;5017423;28;20000;-67
2022/11/16 10:37:07;;;;;;;;;;;14.00;93.90;;;;;;5014631;28;19916;-65
2022/11/16 10:39:35;;;;;;;;;;;14.00;94.50;;;;;;5018556;28;19909;-67
2022/11/16 10:42:09;;;;;;;;;;;13.90;94.60;;;;;;5019545;28;19909;-68
2022/11/16 10:44:36;;;;;;;;;;;13.90;94.70;;;;;;5019466;28;19917;-68
2022/11/16 10:47:10;;;;;;;;;;;13.80;95.00;;;;;;5019030;28;19922;-68
2022/11/16 10:50:05;;;;;;;;;;;13.80;95.20;;;;;;5019459;28;19909;-67
2022/11/16 10:52:32;;;;;;;;;;;13.80;95.30;;;;;;4997518;28;20012;-70
2022/11/16 10:54:59;;;;;;;;;;;13.70;95.30;;;;;;5019057;28;19909;-69
2022/11/16 10:57:45;;;;;;;;;;;13.60;95.10;;;;;;5021028;28;20092;-69
2022/11/16 11:00:12;;;;;;;;;;;13.60;95.80;;;;;;5021426;28;19972;-70
2022/11/16 11:02:47;;;;;;;;;;;13.60;95.90;;;;;;5022947;28;19992;-65
2022/11/16 11:05:13;;;;;;;;;;;13.60;96.30;;;;;;5021593;28;19967;-67
2022/11/16 11:07:43;;;;;;;;;;;13.60;96.70;;;;;;5022336;28;19913;-69
2022/11/16 11:10:25;;;;;;;;;;;13.60;96.80;;;;;;5022462;28;19917;-70
2022/11/16 11:13:06;;;;;;;;;;;13.50;96.90;;;;;;5004587;28;19909;-69
2022/11/16 11:15:33;;;;;;;;;;;13.50;97.20;;;;;;5021789;28;19988;-69
2022/11/16 11:18:14;;;;;;;;;;;13.50;97.10;;;;;;5022072;28;19909;-69
2022/11/16 11:20:43;;;;;;;;;;;13.50;97.00;;;;;;5021874;28;19914;-67
2022/11/16 11:23:17;;;;;;;;;;;13.40;96.70;;;;;;5022375;28;19932;-67
2022/11/16 11:25:53;;;;;;;;;;;13.40;96.90;;;;;;5014638;28;19971;-69
2022/11/16 11:28:30;;;;;;;;;;;13.40;96.00;;;;;;5014797;28;19917;-69
2022/11/16 11:31:15;;;;;;;;;;;13.40;96.20;;;;;;5021155;28;19924;-68
2022/11/16 11:33:47;;;;;;;;;;;13.40;96.80;;;;;;5022302;28;20358;-68
2022/11/16 11:36:19;;;;;;;;;;;13.50;97.20;;;;;;5021313;28;19932;-66
2022/11/16 11:38:55;;;;;;;;;;;13.50;96.90;;;;;;5022021;28;19967;-68
2022/11/16 11:41:22;;;;;;;;;;;13.60;97.10;;;;;;5020428;28;19921;-70
2022/11/16 11:44:11;;;;;;;;;;;13.60;96.70;;;;;;5020738;28;19917;-68
2022/11/16 11:46:38;;;;;;;;;;;13.60;96.20;;;;;;5020726;28;19917;-68
2022/11/16 11:49:23;;;;;;;;;;;13.70;96.60;;;;;;5021355;28;20388;-68
2022/11/16 11:51:50;;;;;;;;;;;13.70;96.70;;;;;;5021553;28;19909;-68
2022/11/16 11:54:23;;;;;;;;;;;13.70;95.70;;;;;;5021261;28;19956;-67
2022/11/16 11:56:49;;;;;;;;;;;13.70;95.40;;;;;;5021580;28;19982;-69
2022/11/16 11:59:18;;;;;;;;;;;13.70;95.30;;;;;;5021897;28;20403;-66
2022/11/16 12:01:57;;;;;;;;;;;13.70;95.70;;;;;;5021511;28;20297;-67
2022/11/16 12:04:30;;;;;;;;;;;13.70;95.10;;;;;;5019540;28;19917;-68
2022/11/16 12:06:57;;;;;;;;;;;13.60;95.60;;;;;;5021171;28;19909;-68
2022/11/16 12:09:30;;;;;;;;;;;13.60;95.70;;;;;;5019316;28;19932;-66
2022/11/16 12:12:18;;;;;;;;;;;13.50;95.70;;;;;;5020627;28;20511;-67
2022/11/16 12:14:48;;;;;;;;;;;13.50;95.30;;;;;;5020767;28;19941;-65
2022/11/16 12:17:14;;;;;;;;;;;13.50;95.50;;;;;;5021395;28;19945;-69
2022/11/16 12:19:56;;;;;;;;;;;13.40;95.60;;;;;;5019456;28;20374;-68
2022/11/16 12:22:22;;;;;;;;;;;13.40;95.80;;;;;;5020582;28;19909;-68
2022/11/16 12:25:07;;;;;;;;;;;13.30;95.40;;;;;;5020918;28;19928;-64
2022/11/16 12:27:51;;;;;;;;;;;13.30;95.90;;;;;;5020276;28;19916;-68
2022/11/16 12:30:21;;;;;;;;;;;13.30;95.90;;;;;;5021151;28;19939;-69
2022/11/16 12:32:57;;;;;;;;;;;13.10;96.00;;;;;;5019977;28;19909;-65
2022/11/16 12:35:23;;;;;;;;;;;13.10;96.00;;;;;;5020825;28;20004;-63
2022/11/16 12:37:50;;;;;;;;;;;13.20;96.10;;;;;;5020320;28;19909;-66
2022/11/16 12:40:41;;;;;;;;;;;13.10;95.90;;;;;;5021545;28;20007;-65
2022/11/16 12:43:13;;;;;;;;;;;13.00;96.90;;;;;;5020772;28;20358;-67
2022/11/16 12:45:53;;;;;;;;;;;13.00;96.40;;;;;;5019241;28;19925;-64
2022/11/16 12:48:26;;;;;;;;;;;13.00;96.00;;;;;;5021246;28;19917;-68
2022/11/16 12:51:06;;;;;;;;;;;13.00;96.00;;;;;;5020603;28;19920;-68
2022/11/16 12:53:32;;;;;;;;;;;13.00;96.10;;;;;;5019155;28;20766;-68
2022/11/16 12:56:21;;;;;;;;;;;13.00;96.20;;;;;;5020531;28;19912;-66
2022/11/16 12:58:51;;;;;;;;;;;13.00;96.00;;;;;;5019082;28;19935;-65
2022/11/16 13:01:20;;;;;;;;;;;13.00;96.50;;;;;;5019801;28;19918;-68
2022/11/16 13:03:50;;;;;;;;;;;13.10;96.20;;;;;;5018523;28;20385;-64
2022/11/16 13:06:38;;;;;;;;;;;13.00;96.10;;;;;;5019958;28;19913;-67
2022/11/16 13:09:13;;;;;;;;;;;13.00;96.30;;;;;;5019967;28;19916;-69
2022/11/16 13:11:45;;;;;;;;;;;13.00;96.50;;;;;;5018754;28;20386;-67
2022/11/16 13:14:24;;;;;;;;;;;12.90;96.50;;;;;;5020271;28;19948;-64
2022/11/16 13:16:51;;;;;;;;;;;13.00;96.70;;;;;;5018533;28;19913;-67
2022/11/16 13:19:18;;;;;;;;;;;12.90;96.60;;;;;;5018822;28;19913;-67
2022/11/16 13:21:58;;;;;;;;;;;12.90;97.00;;;;;;5018526;28;19910;-67
2022/11/16 13:24:25;;;;;;;;;;;12.80;96.80;;;;;;5019973;28;19932;-68
2022/11/16 13:27:09;;;;;;;;;;;12.80;96.60;;;;;;5018849;28;19947;-67
2022/11/16 13:29:39;;;;;;;;;;;12.80;96.80;;;;;;5033974;28;19949;-66
2022/11/16 13:32:13;;;;;;;;;;;12.60;97.10;;;;;;5019471;28;19927;-63
2022/11/16 13:34:40;;;;;;;;;;;12.60;97.00;;;;;;5018199;28;20012;-67
2022/11/16 13:37:39;;;;;;;;;;;12.70;97.80;;;;;;5019433;28;19913;-67
2022/11/16 13:40:05;;;;;;;;;;;12.70;97.30;;;;;;5007502;28;19917;-65
2022/11/16 13:42:33;;;;;;;;;;;12.60;97.20;;;;;;5019691;28;19968;-65
2022/11/16 13:45:08;;;;;;;;;;;12.70;97.30;;;;;;5002109;28;20019;-67
2022/11/16 13:47:35;;;;;;;;;;;12.60;97.20;;;;;;5000042;28;19913;-66
2022/11/16 13:50:02;;;;;;;;;;;12.60;97.80;;;;;;5000689;28;19917;-66
2022/11/16 13:52:41;;;;;;;;;;;12.70;97.50;;;;;;5019723;28;19945;-68
2022/11/16 13:55:23;;;;;;;;;;;12.70;97.70;;;;;;5019234;28;19940;-66
2022/11/16 13:57:51;;;;;;;;;;;12.70;97.70;;;;;;5018337;28;19948;-67
2022/11/16 14:00:22;;;;;;;;;;;12.70;97.80;;;;;;5019275;28;19925;-64
2022/11/16 14:03:08;;;;;;;;;;;12.60;97.70;;;;;;5017936;28;19916;-64
2022/11/16 14:05:39;;;;;;;;;;;12.70;97.90;;;;;;5019765;28;19924;-69
2022/11/16 14:08:24;;;;;;;;;;;12.60;98.00;;;;;;5019907;28;19909;-66
2022/11/16 14:10:50;;;;;;;;;;;12.50;98.00;;;;;;5018237;28;19923;-65
2022/11/16 14:13:29;;;;;;;;;;;12.50;98.50;;;;;;5019273;28;19936;-64
2022/11/16 14:16:14;;;;;;;;;;;12.50;98.70;;;;;;5017934;28;20335;-65
2022/11/16 14:18:42;;;;;;;;;;;12.50;98.80;;;;;;5018559;28;19913;-64
2022/11/16 14:21:26;;;;;;;;;;;12.50;98.50;;;;;;5019219;28;20000;-64
2022/11/16 14:24:11;;;;;;;;;;;12.40;98.60;;;;;;5017460;28;19920;-66
2022/11/16 14:26:53;;;;;;;;;;;12.40;98.70;;;;;;5034895;28;19937;-66
2022/11/16 14:29:22;;;;;;;;;;;12.30;98.80;;;;;;5019036;28;19993;-63
2022/11/16 14:31:51;;;;;;;;;;;12.40;99.20;;;;;;5020609;28;19909;-66
2022/11/16 14:34:20;;;;;;;;;;;12.40;99.00;;;;;;5022864;28;20000;-65
2022/11/16 14:36:47;;;;;;;;;;;12.50;99.10;;;;;;5021571;28;19917;-66
2022/11/16 14:39:24;;;;;;;;;;;12.50;99.10;;;;;;5023357;28;20374;-64
2022/11/16 14:41:51;;;;;;;;;;;12.60;99.10;;;;;;5021269;28;20344;-64
2022/11/16 14:44:19;;;;;;;;;;;12.60;98.70;;;;;;5022372;28;20285;-65
2022/11/16 14:46:45;;;;;;;;;;;12.60;99.00;;;;;;5022602;28;19920;-65
2022/11/16 14:49:13;;;;;;;;;;;12.60;98.70;;;;;;5022787;28;19909;-66
2022/11/16 14:51:48;;;;;;;;;;;12.60;98.80;;;;;;5023121;28;19909;-64
2022/11/16 14:54:31;;;;;;;;;;;12.60;99.00;;;;;;5023498;28;19916;-65
2022/11/16 14:56:59;;;;;;;;;;;12.50;99.00;;;;;;5021474;28;19910;-64
2022/11/16 14:59:26;;;;;;;;;;;12.60;99.10;;;;;;5022360;28;19909;-64
2022/11/16 15:01:53;;;;;;;;;;;12.60;99.00;;;;;;5019551;28;20360;-64
2022/11/16 15:04:21;;;;;;;;;;;12.60;99.20;;;;;;5022623;28;19940;-65
2022/11/16 15:06:50;;;;;;;;;;;12.60;99.40;;;;;;5023403;28;19909;-64
2022/11/16 15:09:37;;;;;;;;;;;12.60;98.80;;;;;;5022812;28;19920;-64